createdAt,value
2022-12-11T00:02:52.820Z,1
2022-12-11T00:09:03.377Z,0.9
2022-12-11T00:15:14.091Z,0.9
2022-12-11T00:21:24.709Z,0.6
2022-12-11T00:27:27.236Z,0.7
2022-12-11T00:33:37.893Z,0.9
2022-12-11T00:39:48.539Z,1
2022-12-11T00:44:53.267Z,1
2022-12-11T00:51:03.936Z,1.1
2022-12-11T00:57:14.593Z,0.9
2022-12-11T01:03:25.256Z,1.1
2022-12-11T01:09:35.942Z,1.1
2022-12-11T01:15:46.656Z,1.1
2022-12-11T01:21:57.248Z,1
2022-12-11T01:27:59.732Z,1.1
2022-12-11T01:34:10.399Z,1
2022-12-11T01:40:21.070Z,1.2
2022-12-11T01:46:31.796Z,1.1
2022-12-11T01:52:42.375Z,1.1
2022-12-11T01:57:55.324Z,1.2
2022-12-11T02:04:05.996Z,1.2
2022-12-11T02:10:16.619Z,1.1
2022-12-11T02:16:27.372Z,1
2022-12-11T02:22:37.992Z,1
2022-12-11T02:28:40.409Z,1
2022-12-11T02:34:51.084Z,1
2022-12-11T02:41:01.818Z,1.1
2022-12-11T02:47:12.439Z,1
2022-12-11T02:53:23.066Z,1.2
2022-12-11T02:59:33.786Z,1.1
2022-12-11T03:05:44.402Z,1.1
2022-12-11T03:11:55.080Z,1
2022-12-11T03:18:05.775Z,1.2
2022-12-11T03:24:16.419Z,1.1
2022-12-11T03:30:18.869Z,1.2
2022-12-11T03:36:29.582Z,1
2022-12-11T03:42:40.191Z,1
2022-12-11T03:48:50.865Z,1.2
2022-12-11T03:55:01.564Z,1.2
2022-12-11T04:01:12.202Z,1.1
2022-12-11T04:07:22.915Z,1.2
2022-12-11T04:13:33.596Z,1.2
2022-12-11T04:19:44.199Z,1.2
2022-12-11T04:24:57.120Z,1.2
2022-12-11T04:30:59.702Z,1.1
2022-12-11T04:37:10.265Z,1.3
2022-12-11T04:43:20.906Z,1
2022-12-11T04:49:31.705Z,1.1
2022-12-11T04:54:36.331Z,1.3
2022-12-11T05:00:47.040Z,1.5
2022-12-11T05:06:57.738Z,1.4
2022-12-11T05:13:08.301Z,1.3
2022-12-11T05:19:18.959Z,1.3
2022-12-11T05:25:29.684Z,1.1
2022-12-11T05:31:32.164Z,1.2
2022-12-11T05:37:42.767Z,1.3
2022-12-11T05:43:53.455Z,0.8
2022-12-11T05:50:04.088Z,1.1
2022-12-11T05:56:14.776Z,0.9
2022-12-11T06:02:25.607Z,0.9
2022-12-11T06:08:36.116Z,1
2022-12-11T06:14:46.782Z,0.9
2022-12-11T06:20:57.470Z,1.2
2022-12-11T06:28:14.035Z,1.2
2022-12-11T06:34:24.693Z,1.1
2022-12-11T06:40:35.380Z,1.3
2022-12-11T06:46:46.039Z,1.1
2022-12-11T06:52:56.684Z,1.2
2022-12-11T06:58:09.643Z,1.5
2022-12-11T07:04:20.273Z,1.3
2022-12-11T07:10:30.941Z,1.4
2022-12-11T07:16:41.671Z,1.2
2022-12-11T07:22:52.271Z,1.2
2022-12-11T07:29:02.948Z,1
2022-12-11T07:35:05.435Z,1.1
2022-12-11T07:41:16.079Z,1.2
2022-12-11T07:47:26.716Z,1.4
2022-12-11T07:53:37.409Z,1.5
2022-12-11T07:59:48.069Z,1.4
2022-12-11T08:05:58.757Z,1.1
2022-12-11T08:12:09.405Z,1.3
2022-12-11T08:18:20.063Z,1.3
2022-12-11T08:24:30.824Z,1.2
2022-12-11T08:30:33.258Z,1.3
2022-12-11T08:36:43.888Z,1.4
2022-12-11T08:42:54.533Z,1.4
2022-12-11T08:49:05.220Z,1.4
2022-12-11T08:55:15.852Z,1.5
2022-12-11T09:00:20.564Z,1.4
2022-12-11T09:06:31.246Z,1.4
2022-12-11T09:12:41.917Z,1
2022-12-11T09:18:52.554Z,1.1
2022-12-11T09:25:19.665Z,1
2022-12-11T09:32:36.218Z,0.9
2022-12-11T09:38:46.881Z,1
2022-12-11T09:44:57.580Z,0.8
2022-12-11T09:51:08.230Z,1.3
2022-12-11T09:57:18.899Z,1.2
2022-12-11T10:03:29.618Z,1.2
2022-12-11T10:09:40.194Z,1.2
2022-12-11T10:15:50.934Z,1.4
2022-12-11T10:22:01.577Z,1.4
2022-12-11T10:28:12.210Z,1.7
2022-12-11T10:34:14.673Z,1.7
2022-12-11T10:40:25.427Z,1.3
2022-12-11T10:46:36.050Z,1.7
2022-12-11T10:52:46.693Z,1.8
2022-12-11T10:58:57.344Z,2
2022-12-11T11:05:08.352Z,2
2022-12-11T11:11:18.674Z,2.2
2022-12-11T11:17:33.777Z,2.2
2022-12-11T11:23:45.492Z,2
2022-12-11T11:30:56.647Z,2.1
2022-12-11T11:37:07.279Z,2.1
2022-12-11T11:43:17.944Z,2.2
2022-12-11T11:49:28.598Z,2.5
2022-12-11T11:54:41.529Z,2.5
2022-12-11T12:00:52.200Z,2.2
2022-12-11T12:07:02.840Z,1.7
2022-12-11T12:13:44.464Z,1.8
2022-12-11T12:19:24.184Z,1.2
2022-12-11T12:25:34.837Z,0.9
2022-12-11T12:31:45.620Z,1.4
2022-12-11T12:37:47.969Z,1.4
2022-12-11T12:43:58.671Z,2.1
2022-12-11T12:50:09.479Z,1.9
2022-12-11T12:56:19.945Z,2.2
2022-12-11T13:02:30.714Z,2.2
2022-12-11T13:07:35.388Z,2.2
2022-12-11T13:13:50.199Z,2.4
2022-12-11T13:19:56.710Z,2.4
2022-12-11T13:26:07.385Z,2.2
2022-12-11T13:32:09.816Z,2.2
2022-12-11T13:38:20.498Z,1.8
2022-12-11T13:44:31.164Z,1.7
2022-12-11T13:50:41.816Z,1.5
2022-12-11T13:56:52.487Z,1.5
2022-12-11T14:03:03.156Z,1.5
2022-12-11T14:09:13.820Z,1.8
2022-12-11T14:15:24.476Z,1.8
2022-12-11T14:22:49.292Z,1.8
2022-12-11T14:28:02.203Z,1.7
2022-12-11T14:34:04.674Z,1.7
2022-12-11T14:40:15.386Z,1.5
2022-12-11T14:46:26.043Z,1.5
2022-12-11T14:52:36.658Z,1.5
2022-12-11T14:58:47.359Z,1.7
2022-12-11T15:04:57.993Z,1.7
2022-12-11T15:11:08.650Z,1.8
2022-12-11T15:17:19.382Z,1.9
2022-12-11T15:23:29.988Z,1.8
2022-12-11T15:29:40.626Z,1.5
2022-12-11T15:35:43.125Z,1.5
2022-12-11T15:41:53.790Z,1.3
2022-12-11T15:48:04.441Z,1.4
2022-12-11T15:54:15.144Z,1.3
2022-12-11T16:00:25.773Z,1.5
2022-12-11T16:06:36.459Z,1.6
2022-12-11T16:12:47.149Z,1.6
2022-12-11T16:18:57.777Z,1.5
2022-12-11T16:25:08.450Z,1.3
2022-12-11T16:31:19.170Z,1.3
2022-12-11T16:38:35.690Z,1.3
2022-12-11T16:44:54.577Z,1.5
2022-12-11T16:52:25.305Z,1.6
2022-12-11T16:59:08.499Z,1.4
2022-12-11T17:05:13.789Z,1.1
2022-12-11T17:10:18.182Z,0.9
2022-12-11T17:16:28.835Z,0.8
2022-12-11T17:22:39.557Z,0.9
2022-12-11T17:27:44.377Z,1.1
2022-12-11T17:33:46.699Z,1.2
2022-12-11T17:39:57.416Z,1.2
2022-12-11T17:46:08.086Z,1.5
2022-12-11T17:52:18.730Z,1.6
2022-12-11T17:58:29.396Z,1.7
2022-12-11T18:04:40.046Z,1.5
2022-12-11T18:10:50.695Z,1.1
2022-12-11T18:17:01.357Z,1.1
2022-12-11T18:23:12.065Z,1.3
2022-12-11T18:29:22.739Z,1.7
2022-12-11T18:36:39.312Z,1.5
2022-12-11T18:42:49.988Z,1.3
2022-12-11T18:49:00.621Z,1.4
2022-12-11T18:55:11.477Z,1.3
2022-12-11T19:02:36.093Z,1.4
2022-12-11T19:08:46.823Z,1.4
2022-12-11T19:14:57.417Z,1.5
2022-12-11T19:21:09.197Z,1.5
2022-12-11T19:26:21.011Z,1.6
2022-12-11T19:32:36.165Z,1.4
2022-12-11T19:38:34.140Z,1.2
2022-12-11T19:44:44.814Z,1.2
2022-12-11T19:50:55.480Z,1
2022-12-11T19:57:06.108Z,0.7
2022-12-11T20:03:16.822Z,0.9
2022-12-11T20:09:27.514Z,1
2022-12-11T20:15:38.131Z,0.9
2022-12-11T20:21:48.774Z,1
2022-12-11T20:27:59.494Z,0.9
2022-12-11T20:35:16.067Z,0.9
2022-12-11T20:41:26.738Z,0.9
2022-12-11T20:47:37.398Z,0.9
2022-12-11T20:53:48.059Z,0.9
2022-12-11T20:59:58.721Z,0.6
2022-12-11T21:06:09.447Z,0.6
2022-12-11T21:12:20.049Z,0.5
2022-12-11T21:18:30.712Z,0.4
2022-12-11T21:24:41.397Z,0.4
2022-12-11T21:30:52.065Z,0.5
2022-12-11T21:36:54.544Z,0.9
2022-12-11T21:43:05.204Z,1.1
2022-12-11T21:49:15.875Z,1.2
2022-12-11T21:55:42.894Z,0.7
2022-12-11T22:01:53.705Z,0.6
2022-12-11T22:08:04.274Z,0.6
2022-12-11T22:14:14.891Z,0.6
2022-12-11T22:20:25.564Z,0.8
2022-12-11T22:26:36.231Z,0.6
2022-12-11T22:32:46.902Z,0.7
2022-12-11T22:38:49.369Z,0.7
2022-12-11T22:45:00.044Z,0.7
2022-12-11T22:51:10.695Z,0.7
2022-12-11T22:57:21.365Z,0.6
2022-12-11T23:03:32.121Z,0.9
2022-12-11T23:09:42.672Z,0.7
2022-12-11T23:15:53.334Z,0.9
2022-12-11T23:22:04.076Z,1.1
2022-12-11T23:28:14.667Z,1.3
2022-12-11T23:34:25.324Z,1
2022-12-11T23:40:27.857Z,0.6
2022-12-11T23:46:38.528Z,0.8
2022-12-11T23:52:49.167Z,0.3
2022-12-11T23:59:00.011Z,0.4
